Time,TemperatureF,DewpointF,PressureIn,WindDirection,WindDirectionDegrees,WindSpeedMPH,WindSpeedGustMPH,Humidity,HourlyPrecipIn,Conditions,Clouds,dailyrainin,SoftwareType,DateUTC
2013-02-12 00:08:00,44.9,41.0,29.70,WNW,295,2.0,8.0,87,0.00,,,0.00,weatherlink.com 1.10,2013-02-12 05:08:00,
2013-02-12 00:23:00,44.5,41.0,29.70,West,278,0.0,3.0,87,0.00,,,0.00,weatherlink.com 1.10,2013-02-12 05:23:00,
2013-02-12 00:38:00,44.1,41.0,29.70,WNW,295,0.0,4.0,87,0.00,,,0.00,weatherlink.com 1.10,2013-02-12 05:38:00,
2013-02-12 00:54:00,43.7,40.0,29.70,West,263,0.0,1.0,88,0.00,,,0.00,weatherlink.com 1.10,2013-02-12 05:54:00,
2013-02-12 01:09:00,43.1,40.0,29.69,WSW,251,1.0,3.0,89,0.00,,,0.00,weatherlink.com 1.10,2013-02-12 06:09:00,
2013-02-12 01:24:00,43.5,40.0,29.70,WSW,239,1.0,8.0,86,0.00,,,0.00,weatherlink.com 1.10,2013-02-12 06:24:00,
2013-02-12 01:39:00,44.6,36.0,29.70,SW,232,15.0,18.0,72,0.00,,,0.00,weatherlink.com 1.10,2013-02-12 06:39:00,
2013-02-12 01:54:00,44.4,33.0,29.70,West,263,10.0,22.0,65,0.00,,,0.00,weatherlink.com 1.10,2013-02-12 06:54:00,
2013-02-12 02:09:00,44.0,31.0,29.71,SW,221,12.0,19.0,61,0.00,,,0.00,weatherlink.com 1.10,2013-02-12 07:09:00,
2013-02-12 02:24:00,43.3,30.0,29.71,West,269,3.0,19.0,60,0.00,,,0.00,weatherlink.com 1.10,2013-02-12 07:24:00,
2013-02-12 02:39:00,42.9,29.0,29.71,WSW,238,15.0,16.0,59,0.00,,,0.00,weatherlink.com 1.10,2013-02-12 07:39:00,
2013-02-12 02:54:00,42.4,29.0,29.72,WNW,285,4.0,13.0,60,0.00,,,0.00,weatherlink.com 1.10,2013-02-12 07:54:00,
2013-02-12 03:09:00,42.2,29.0,29.72,WNW,287,6.0,15.0,59,0.00,,,0.00,weatherlink.com 1.10,2013-02-12 08:09:00,
2013-02-12 03:24:00,41.9,28.0,29.73,WSW,252,6.0,12.0,59,0.00,,,0.00,weatherlink.com 1.10,2013-02-12 08:24:00,
2013-02-12 03:39:00,42.0,28.0,29.73,WNW,288,2.0,12.0,58,0.00,,,0.00,weatherlink.com 1.10,2013-02-12 08:39:00,
2013-02-12 03:54:00,41.6,28.0,29.74,NNE,23,5.0,13.0,59,0.00,,,0.00,weatherlink.com 1.10,2013-02-12 08:54:00,
2013-02-12 04:09:00,41.6,28.0,29.75,WSW,242,5.0,10.0,59,0.00,,,0.00,weatherlink.com 1.10,2013-02-12 09:09:00,
2013-02-12 04:24:00,41.3,28.0,29.75,WNW,293,1.0,8.0,60,0.00,,,0.00,weatherlink.com 1.10,2013-02-12 09:24:00,
2013-02-12 04:39:00,41.2,28.0,29.75,WSW,248,3.0,13.0,60,0.00,,,0.00,weatherlink.com 1.10,2013-02-12 09:39:00,
2013-02-12 04:54:00,41.1,28.0,29.75,WSW,255,3.0,10.0,61,0.00,,,0.00,weatherlink.com 1.10,2013-02-12 09:54:00,
2013-02-12 05:09:00,41.0,28.0,29.75,NW,312,3.0,6.0,61,0.00,,,0.00,weatherlink.com 1.10,2013-02-12 10:09:00,
2013-02-12 05:24:00,41.0,28.0,29.75,West,268,6.0,15.0,60,0.00,,,0.00,weatherlink.com 1.10,2013-02-12 10:24:00,
2013-02-12 05:40:00,41.3,28.0,29.75,South,181,4.0,13.0,59,0.00,,,0.00,weatherlink.com 1.10,2013-02-12 10:40:00,
2013-02-12 05:54:00,41.6,28.0,29.76,WSW,256,6.0,12.0,58,0.00,,,0.00,weatherlink.com 1.10,2013-02-12 10:54:00,
2013-02-12 06:09:00,41.7,28.0,29.76,WNW,284,6.0,13.0,58,0.00,,,0.00,weatherlink.com 1.10,2013-02-12 11:09:00,
2013-02-12 06:24:00,41.7,28.0,29.77,SW,219,7.0,14.0,58,0.00,,,0.00,weatherlink.com 1.10,2013-02-12 11:24:00,
2013-02-12 06:39:00,41.7,28.0,29.77,NNW,335,3.0,12.0,58,0.00,,,0.00,weatherlink.com 1.10,2013-02-12 11:39:00,
2013-02-12 06:54:00,41.7,27.0,29.78,SW,231,2.0,10.0,57,0.00,,,0.00,weatherlink.com 1.10,2013-02-12 11:54:00,
2013-02-12 07:09:00,41.7,27.0,29.79,West,262,7.0,11.0,57,0.00,,,0.00,weatherlink.com 1.10,2013-02-12 12:09:00,
2013-02-12 07:24:00,41.9,27.0,29.80,WSW,245,7.0,11.0,57,0.00,,,0.00,weatherlink.com 1.10,2013-02-12 12:24:00,
2013-02-12 07:40:00,42.2,28.0,29.80,WSW,245,3.0,13.0,57,0.00,,,0.00,weatherlink.com 1.10,2013-02-12 12:40:00,
2013-02-12 07:55:00,42.7,27.0,29.81,SW,231,6.0,13.0,55,0.00,,,0.00,weatherlink.com 1.10,2013-02-12 12:55:00,
2013-02-12 08:10:00,43.0,27.0,29.82,West,269,6.0,16.0,53,0.00,,,0.00,weatherlink.com 1.10,2013-02-12 13:10:00,
2013-02-12 08:25:00,43.3,27.0,29.82,SW,232,7.0,10.0,52,0.00,,,0.00,weatherlink.com 1.10,2013-02-12 13:25:00,
2013-02-12 08:40:00,43.8,27.0,29.83,SSW,210,7.0,11.0,51,0.00,,,0.00,weatherlink.com 1.10,2013-02-12 13:40:00,
2013-02-12 08:55:00,44.0,27.0,29.83,WSW,242,4.0,13.0,51,0.00,,,0.00,weatherlink.com 1.10,2013-02-12 13:55:00,
2013-02-12 09:10:00,44.2,26.0,29.83,West,274,6.0,15.0,50,0.00,,,0.00,weatherlink.com 1.10,2013-02-12 14:10:00,
2013-02-12 09:25:00,43.5,26.0,29.84,SW,229,6.0,13.0,51,0.00,,,0.00,weatherlink.com 1.10,2013-02-12 14:25:00,
2013-02-12 09:40:00,43.4,27.0,29.83,West,272,4.0,9.0,53,0.00,,,0.00,weatherlink.com 1.10,2013-02-12 14:40:00,
2013-02-12 09:55:00,43.7,27.0,29.83,South,186,2.0,11.0,52,0.00,,,0.00,weatherlink.com 1.10,2013-02-12 14:55:00,
2013-02-12 10:10:00,43.7,26.0,29.84,WSW,255,3.0,14.0,51,0.00,,,0.00,weatherlink.com 1.10,2013-02-12 15:10:00,
2013-02-12 10:25:00,43.9,26.0,29.84,West,271,3.0,9.0,50,0.00,,,0.00,weatherlink.com 1.10,2013-02-12 15:25:00,
2013-02-12 10:40:00,44.1,26.0,29.84,SSW,207,7.0,15.0,49,0.00,,,0.00,weatherlink.com 1.10,2013-02-12 15:40:00,
2013-02-12 10:55:00,44.1,26.0,29.85,NW,308,8.0,13.0,50,0.00,,,0.00,weatherlink.com 1.10,2013-02-12 15:55:00,
2013-02-12 11:10:00,44.7,26.0,29.85,West,272,8.0,12.0,49,0.00,,,0.00,weatherlink.com 1.10,2013-02-12 16:10:00,
2013-02-12 11:25:00,44.5,26.0,29.85,WNW,297,9.0,16.0,49,0.00,,,0.00,weatherlink.com 1.10,2013-02-12 16:25:00,
2013-02-12 11:40:00,44.6,26.0,29.85,WSW,238,6.0,14.0,48,0.00,,,0.00,weatherlink.com 1.10,2013-02-12 16:40:00,
2013-02-12 11:55:00,45.4,27.0,29.85,NNW,335,1.0,16.0,48,0.00,,,0.00,weatherlink.com 1.10,2013-02-12 16:55:00,
2013-02-12 12:10:00,45.7,26.0,29.86,NW,320,5.0,13.0,47,0.00,,,0.00,weatherlink.com 1.10,2013-02-12 17:10:00,
2013-02-12 12:25:00,45.9,26.0,29.85,NW,304,7.0,16.0,46,0.00,,,0.00,weatherlink.com 1.10,2013-02-12 17:25:00,
2013-02-12 12:40:00,46.5,27.0,29.85,WNW,289,5.0,14.0,46,0.00,,,0.00,weatherlink.com 1.10,2013-02-12 17:40:00,
2013-02-12 12:55:00,45.8,26.0,29.85,West,276,5.0,15.0,47,0.00,,,0.00,weatherlink.com 1.10,2013-02-12 17:55:00,
2013-02-12 13:10:00,45.6,26.0,29.86,WSW,242,6.0,12.0,47,0.00,,,0.00,weatherlink.com 1.10,2013-02-12 18:10:00,
2013-02-12 13:25:00,45.3,26.0,29.85,NNW,331,3.0,16.0,47,0.00,,,0.00,weatherlink.com 1.10,2013-02-12 18:25:00,
2013-02-12 13:40:00,45.9,26.0,29.85,WSW,238,5.0,12.0,46,0.00,,,0.00,weatherlink.com 1.10,2013-02-12 18:40:00,
2013-02-12 13:55:00,46.3,26.0,29.85,West,281,7.0,11.0,46,0.00,,,0.00,weatherlink.com 1.10,2013-02-12 18:55:00,
2013-02-12 14:10:00,46.7,27.0,29.85,WNW,301,7.0,14.0,46,0.00,,,0.00,weatherlink.com 1.10,2013-02-12 19:10:00,
2013-02-12 14:25:00,46.2,25.0,29.85,West,262,13.0,15.0,44,0.00,,,0.00,weatherlink.com 1.10,2013-02-12 19:25:00,
2013-02-12 14:40:00,46.4,26.0,29.85,NW,310,4.0,14.0,45,0.00,,,0.00,weatherlink.com 1.10,2013-02-12 19:40:00,
2013-02-12 14:55:00,46.8,26.0,29.84,NNW,327,4.0,13.0,45,0.00,,,0.00,weatherlink.com 1.10,2013-02-12 19:55:00,
2013-02-12 15:10:00,46.5,25.0,29.85,WNW,290,6.0,15.0,44,0.00,,,0.00,weatherlink.com 1.10,2013-02-12 20:10:00,
2013-02-12 15:25:00,46.0,26.0,29.85,SW,218,8.0,12.0,45,0.00,,,0.00,weatherlink.com 1.10,2013-02-12 20:25:00,
2013-02-12 15:40:00,46.2,26.0,29.83,WSW,243,14.0,14.0,45,0.00,,,0.00,weatherlink.com 1.10,2013-02-12 20:40:00,
2013-02-12 15:55:00,45.9,25.0,29.84,WSW,253,7.0,11.0,45,0.00,,,0.00,weatherlink.com 1.10,2013-02-12 20:55:00,
2013-02-12 16:10:00,46.0,26.0,29.82,WNW,293,3.0,13.0,46,0.00,,,0.00,weatherlink.com 1.10,2013-02-12 21:10:00,
2013-02-12 16:25:00,45.3,25.0,29.79,WNW,302,9.0,13.0,46,0.00,,,0.00,weatherlink.com 1.10,2013-02-12 21:25:00,
2013-02-12 16:40:00,45.0,26.0,29.79,NNW,330,2.0,7.0,48,0.00,,,0.00,weatherlink.com 1.10,2013-02-12 21:40:00,
2013-02-12 16:55:00,44.9,26.0,29.83,WNW,287,3.0,6.0,48,0.00,,,0.00,weatherlink.com 1.10,2013-02-12 21:55:00,
2013-02-12 17:10:00,44.2,25.0,29.84,NW,316,2.0,8.0,48,0.00,,,0.00,weatherlink.com 1.10,2013-02-12 22:10:00,
2013-02-12 17:25:00,43.6,25.0,29.85,SSW,192,4.0,9.0,49,0.00,,,0.00,weatherlink.com 1.10,2013-02-12 22:25:00,
2013-02-12 17:40:00,43.3,25.0,29.90,SW,231,14.0,14.0,49,0.00,,,0.00,weatherlink.com 1.10,2013-02-12 22:40:00,
2013-02-12 17:55:00,43.1,25.0,29.89,West,272,6.0,14.0,50,0.00,,,0.00,weatherlink.com 1.10,2013-02-12 22:55:00,
2013-02-12 18:10:00,42.8,26.0,29.93,WSW,245,15.0,16.0,51,0.00,,,0.00,weatherlink.com 1.10,2013-02-12 23:10:00,
2013-02-12 18:25:00,42.5,25.0,29.93,SW,228,3.0,13.0,50,0.00,,,0.00,weatherlink.com 1.10,2013-02-12 23:25:00,
2013-02-12 18:40:00,42.5,26.0,29.93,West,263,4.0,11.0,52,0.00,,,0.00,weatherlink.com 1.10,2013-02-12 23:40:00,
2013-02-12 18:55:00,42.3,25.0,29.93,NW,326,2.0,9.0,51,0.00,,,0.00,weatherlink.com 1.10,2013-02-12 23:55:00,
2013-02-12 19:10:00,42.0,25.0,29.93,SSW,203,6.0,9.0,51,0.00,,,0.00,weatherlink.com 1.10,2013-02-13 00:10:00,
2013-02-12 19:25:00,41.8,25.0,29.93,WNW,295,4.0,11.0,51,0.00,,,0.00,weatherlink.com 1.10,2013-02-13 00:25:00,
2013-02-12 19:40:00,41.8,25.0,29.93,West,271,3.0,9.0,52,0.00,,,0.00,weatherlink.com 1.10,2013-02-13 00:40:00,
2013-02-12 19:55:00,41.7,24.0,29.94,WNW,285,7.0,11.0,50,0.00,,,0.00,weatherlink.com 1.10,2013-02-13 00:55:00,
2013-02-12 20:11:00,41.5,24.0,29.93,WNW,297,3.0,10.0,51,0.00,,,0.00,weatherlink.com 1.10,2013-02-13 01:11:00,
2013-02-12 20:26:00,41.2,24.0,29.93,WSW,243,5.0,11.0,51,0.00,,,0.00,weatherlink.com 1.10,2013-02-13 01:26:00,
2013-02-12 20:41:00,40.9,24.0,29.91,WNW,284,2.0,8.0,52,0.00,,,0.00,weatherlink.com 1.10,2013-02-13 01:41:00,
2013-02-12 20:56:00,40.7,24.0,29.91,WSW,255,2.0,10.0,52,0.00,,,0.00,weatherlink.com 1.10,2013-02-13 01:56:00,
2013-02-12 21:11:00,40.4,24.0,29.90,WSW,249,4.0,8.0,53,0.00,,,0.00,weatherlink.com 1.10,2013-02-13 02:11:00,
2013-02-12 21:26:00,40.2,25.0,29.89,WSW,247,4.0,6.0,54,0.00,,,0.00,weatherlink.com 1.10,2013-02-13 02:26:00,
2013-02-12 21:41:00,40.0,24.0,29.89,WNW,284,0.0,4.0,54,0.00,,,0.00,weatherlink.com 1.10,2013-02-13 02:41:00,
2013-02-12 21:56:00,39.8,25.0,29.88,WSW,247,4.0,6.0,55,0.00,,,0.00,weatherlink.com 1.10,2013-02-13 02:56:00,
2013-02-12 22:11:00,39.5,24.0,29.88,East,81,0.0,5.0,55,0.00,,,0.00,weatherlink.com 1.10,2013-02-13 03:11:00,
2013-02-12 22:26:00,39.5,24.0,29.88,NW,323,5.0,8.0,55,0.00,,,0.00,weatherlink.com 1.10,2013-02-13 03:26:00,
2013-02-12 22:41:00,39.5,24.0,29.89,WNW,297,4.0,7.0,55,0.00,,,0.00,weatherlink.com 1.10,2013-02-13 03:41:00,
2013-02-12 22:56:00,39.4,24.0,29.89,West,274,3.0,6.0,55,0.00,,,0.00,weatherlink.com 1.10,2013-02-13 03:56:00,
2013-02-12 23:11:00,39.2,25.0,29.89,WNW,298,6.0,10.0,56,0.00,,,0.00,weatherlink.com 1.10,2013-02-13 04:11:00,
2013-02-12 23:26:00,39.2,25.0,29.89,West,260,1.0,9.0,56,0.00,,,0.00,weatherlink.com 1.10,2013-02-13 04:26:00,
2013-02-12 23:41:00,39.2,25.0,29.90,WSW,247,2.0,6.0,56,0.00,,,0.00,weatherlink.com 1.10,2013-02-13 04:41:00,
2013-02-12 23:56:00,38.8,25.0,29.90,West,280,0.0,4.0,57,0.00,,,0.00,weatherlink.com 1.10,2013-02-13 04:56:00,